createdAt,value
2023-03-21T00:00:45.578Z,90.38
2023-03-21T00:03:24.667Z,90.44
2023-03-21T00:05:55.501Z,90.48
2023-03-21T00:08:28.262Z,90.40
2023-03-21T00:10:58.874Z,90.62
2023-03-21T00:13:31.957Z,90.61
2023-03-21T00:16:10.216Z,90.58
2023-03-21T00:18:54.801Z,90.31
2023-03-21T00:24:16.663Z,90.57
2023-03-21T00:26:46.003Z,90.67
2023-03-21T00:29:16.092Z,90.31
2023-03-21T00:31:44.986Z,90.23
2023-03-21T00:34:14.408Z,90.51
2023-03-21T00:36:43.360Z,90.37
2023-03-21T00:39:13.599Z,90.74
2023-03-21T00:41:43.595Z,90.57
2023-03-21T00:44:15.120Z,90.07
2023-03-21T00:47:00.553Z,90.51
2023-03-21T00:49:37.936Z,90.87
2023-03-21T00:52:18.331Z,90.96
2023-03-21T00:54:54.485Z,90.83
2023-03-21T00:57:37.586Z,89.99
2023-03-21T01:00:11.392Z,90.03
2023-03-21T01:03:08.592Z,89.62
2023-03-21T01:06:01.716Z,89.84
2023-03-21T01:08:44.568Z,90.59
2023-03-21T01:11:22.618Z,90.62
2023-03-21T01:14:04.287Z,90.64
2023-03-21T01:16:40.684Z,91.02
2023-03-21T01:19:23.906Z,91.07
2023-03-21T01:22:02.274Z,91.00
2023-03-21T01:24:32.477Z,91.05
2023-03-21T01:27:03.482Z,90.79
2023-03-21T01:29:32.652Z,91.05
2023-03-21T01:32:04.526Z,91.09
2023-03-21T01:34:33.384Z,91.11
2023-03-21T01:37:06.276Z,91.20
2023-03-21T01:39:41.876Z,90.95
2023-03-21T01:42:14.024Z,90.23
2023-03-21T01:44:56.737Z,90.46
2023-03-21T01:47:27.057Z,90.57
2023-03-21T01:50:15.241Z,90.25
2023-03-21T01:53:22.202Z,90.20
2023-03-21T01:55:51.415Z,90.35
2023-03-21T01:58:44.717Z,90.62
2023-03-21T02:01:45.603Z,90.62
2023-03-21T02:04:16.380Z,90.69
2023-03-21T02:06:52.380Z,90.93
2023-03-21T02:09:45.212Z,90.80
2023-03-21T02:12:18.608Z,90.85
2023-03-21T02:14:49.942Z,91.05
2023-03-21T02:17:49.600Z,91.10
2023-03-21T02:21:01.104Z,91.04
2023-03-21T02:24:09.447Z,90.97
2023-03-21T02:27:04.077Z,90.72
2023-03-21T02:30:08.768Z,90.95
2023-03-21T02:33:09.422Z,91.20
2023-03-21T02:35:56.785Z,91.30
2023-03-21T02:38:36.116Z,91.29
2023-03-21T02:41:18.160Z,91.74
2023-03-21T02:43:56.532Z,91.62
2023-03-21T02:46:43.948Z,91.43
2023-03-21T02:49:22.201Z,91.44
2023-03-21T02:51:51.816Z,91.66
2023-03-21T02:54:41.904Z,91.40
2023-03-21T02:57:19.187Z,91.66
2023-03-21T02:59:55.435Z,91.22
2023-03-21T03:02:32.985Z,90.93
2023-03-21T03:05:20.697Z,91.34
2023-03-21T03:08:06.613Z,91.57
2023-03-21T03:10:56.305Z,91.09
2023-03-21T03:13:43.824Z,91.17
2023-03-21T03:16:27.002Z,91.05
2023-03-21T03:18:58.095Z,90.99
2023-03-21T03:21:32.503Z,90.47
2023-03-21T03:24:09.383Z,91.00
2023-03-21T03:26:45.440Z,90.73
2023-03-21T03:29:16.674Z,90.64
2023-03-21T03:31:51.130Z,91.07
2023-03-21T03:34:21.518Z,90.47
2023-03-21T03:36:56.445Z,90.53
2023-03-21T03:39:33.602Z,90.23
2023-03-21T03:42:18.523Z,90.45
2023-03-21T03:44:59.296Z,89.76
2023-03-21T03:47:37.969Z,90.18
2023-03-21T03:50:18.185Z,89.96
2023-03-21T03:52:56.516Z,89.38
2023-03-21T03:55:33.829Z,89.57
2023-03-21T03:58:21.731Z,88.88
2023-03-21T04:00:56.220Z,89.89
2023-03-21T04:03:25.666Z,90.17
2023-03-21T04:05:54.894Z,90.21
2023-03-21T04:08:24.086Z,90.16
2023-03-21T04:10:55.640Z,90.03
2023-03-21T04:13:25.515Z,89.62
2023-03-21T04:16:12.283Z,90.12
2023-03-21T04:18:41.992Z,90.11
2023-03-21T04:21:14.052Z,90.37
2023-03-21T04:23:43.187Z,90.04
2023-03-21T04:26:12.797Z,90.35
2023-03-21T04:28:46.131Z,90.43
2023-03-21T04:31:35.453Z,90.54
2023-03-21T04:34:12.037Z,90.63
2023-03-21T04:36:45.330Z,90.56
2023-03-21T04:39:15.062Z,90.21
2023-03-21T04:41:46.312Z,90.52
2023-03-21T04:44:18.476Z,90.68
2023-03-21T04:46:51.578Z,90.38
2023-03-21T04:49:24.396Z,90.28
2023-03-21T04:51:55.942Z,90.59
2023-03-21T04:54:26.772Z,90.43
2023-03-21T04:57:00.179Z,90.69
2023-03-21T04:59:29.564Z,90.72
2023-03-21T05:01:59.222Z,91.00
2023-03-21T05:04:30.474Z,90.83
2023-03-21T05:07:03.279Z,90.87
2023-03-21T05:09:32.364Z,90.88
2023-03-21T05:12:01.965Z,91.01
2023-03-21T05:14:32.295Z,90.54
2023-03-21T05:17:04.767Z,90.38
2023-03-21T05:19:34.959Z,90.49
2023-03-21T05:22:08.012Z,90.72
2023-03-21T05:24:38.674Z,90.97
2023-03-21T05:27:08.801Z,91.05
2023-03-21T05:29:42.141Z,90.73
2023-03-21T05:32:12.388Z,90.75
2023-03-21T05:34:41.323Z,90.81
2023-03-21T05:37:12.276Z,90.93
2023-03-21T05:39:47.774Z,90.67
2023-03-21T05:42:23.511Z,90.88
2023-03-21T05:44:53.865Z,90.97
2023-03-21T05:47:28.154Z,90.88
2023-03-21T05:49:57.354Z,91.10
2023-03-21T05:52:28.112Z,91.08
2023-03-21T05:54:56.961Z,91.05
2023-03-21T05:57:28.356Z,90.54
2023-03-21T06:00:03.786Z,90.66
2023-03-21T06:02:45.336Z,90.91
2023-03-21T06:05:43.315Z,90.37
2023-03-21T06:08:19.422Z,90.52
2023-03-21T06:10:48.403Z,90.47
2023-03-21T06:13:17.592Z,90.67
2023-03-21T06:15:46.513Z,90.64
2023-03-21T06:18:19.005Z,90.30
2023-03-21T06:21:08.118Z,90.49
2023-03-21T06:23:37.066Z,90.81
2023-03-21T06:26:09.330Z,90.50
2023-03-21T06:28:39.771Z,90.38
2023-03-21T06:31:09.073Z,90.55
2023-03-21T06:33:38.208Z,90.39
2023-03-21T06:36:12.996Z,90.43
2023-03-21T06:38:42.038Z,90.58
2023-03-21T06:41:12.798Z,89.79
2023-03-21T06:43:48.690Z,89.58
2023-03-21T06:46:17.807Z,90.01
2023-03-21T06:48:46.935Z,90.19
2023-03-21T06:51:16.636Z,90.24
2023-03-21T06:53:58.681Z,90.30
2023-03-21T06:56:41.107Z,90.23
2023-03-21T06:59:12.139Z,90.17
2023-03-21T07:01:53.057Z,89.94
2023-03-21T07:04:22.741Z,90.10
2023-03-21T07:06:51.881Z,90.18
2023-03-21T07:09:27.494Z,90.03
2023-03-21T07:11:59.101Z,89.58
2023-03-21T07:14:34.528Z,89.47
2023-03-21T07:17:03.631Z,89.54
2023-03-21T07:19:32.550Z,89.51
2023-03-21T07:22:02.388Z,89.76
2023-03-21T07:24:31.461Z,89.59
2023-03-21T07:27:01.120Z,89.28
2023-03-21T07:29:30.016Z,89.09
2023-03-21T07:32:02.007Z,89.19
2023-03-21T07:34:33.290Z,88.68
2023-03-21T07:37:06.486Z,88.78
2023-03-21T07:39:35.914Z,88.73
2023-03-21T07:42:05.157Z,88.32
2023-03-21T07:44:39.898Z,88.23
2023-03-21T07:47:09.103Z,88.58
2023-03-21T07:49:38.223Z,88.52
2023-03-21T07:52:07.371Z,88.17
2023-03-21T07:54:36.370Z,87.53
2023-03-21T07:57:05.276Z,87.33
2023-03-21T07:59:34.057Z,87.26
2023-03-21T08:02:03.015Z,87.11
2023-03-21T08:04:35.069Z,86.59
2023-03-21T08:07:03.960Z,86.32
2023-03-21T08:09:35.680Z,86.16
2023-03-21T08:12:07.792Z,85.75
2023-03-21T08:14:37.181Z,86.14
2023-03-21T08:17:06.461Z,85.88
2023-03-21T08:19:36.942Z,85.66
2023-03-21T08:22:06.263Z,85.79
2023-03-21T08:24:35.106Z,85.46
2023-03-21T08:27:04.013Z,85.36
2023-03-21T08:29:39.869Z,85.08
2023-03-21T08:32:08.859Z,84.90
2023-03-21T08:34:37.669Z,84.77
2023-03-21T08:37:06.580Z,84.79
2023-03-21T08:39:35.605Z,84.76
2023-03-21T08:42:05.137Z,84.39
2023-03-21T08:44:35.303Z,84.30
2023-03-21T08:47:04.185Z,83.49
2023-03-21T08:49:33.042Z,82.70
2023-03-21T08:52:02.427Z,82.05
2023-03-21T08:54:31.775Z,81.60
2023-03-21T08:57:01.440Z,80.40
2023-03-21T08:59:30.422Z,81.78
2023-03-21T09:02:02.925Z,81.95
2023-03-21T09:04:32.573Z,82.15
2023-03-21T09:07:02.398Z,81.75
2023-03-21T09:09:32.068Z,81.92
2023-03-21T09:12:03.503Z,81.81
2023-03-21T09:14:35.476Z,81.74
2023-03-21T09:17:04.458Z,81.28
2023-03-21T09:19:35.996Z,81.21
2023-03-21T09:22:04.854Z,81.22
2023-03-21T09:24:35.015Z,81.83
2023-03-21T09:27:03.935Z,81.40
2023-03-21T09:29:33.631Z,81.38
2023-03-21T09:32:03.546Z,81.60
2023-03-21T09:34:32.826Z,81.06
2023-03-21T09:37:02.921Z,79.87
2023-03-21T09:39:32.981Z,80.08
2023-03-21T09:42:18.832Z,79.91
2023-03-21T09:45:00.870Z,80.28
2023-03-21T09:47:37.247Z,80.56
2023-03-21T09:50:17.394Z,80.80
2023-03-21T09:52:50.136Z,80.39
2023-03-21T09:55:22.025Z,80.59
2023-03-21T09:58:00.180Z,80.86
2023-03-21T10:00:34.598Z,81.74
2023-03-21T10:03:09.588Z,81.77
2023-03-21T10:05:44.149Z,82.04
2023-03-21T10:08:21.877Z,82.27
2023-03-21T10:10:55.316Z,82.31
2023-03-21T10:13:27.719Z,81.99
2023-03-21T10:15:58.433Z,82.11
2023-03-21T10:18:29.703Z,82.01
2023-03-21T10:20:59.106Z,82.32
2023-03-21T10:23:30.101Z,81.90
2023-03-21T10:26:02.247Z,82.08
2023-03-21T10:31:33.090Z,82.44
2023-03-21T10:34:09.745Z,82.21
2023-03-21T10:36:39.939Z,81.81
2023-03-21T10:39:19.469Z,82.31
2023-03-21T10:41:48.260Z,81.21
2023-03-21T10:44:18.124Z,80.73
2023-03-21T10:46:56.497Z,80.89
2023-03-21T10:49:56.407Z,81.03
2023-03-21T10:52:30.460Z,80.92
2023-03-21T10:55:16.649Z,81.18
2023-03-21T10:57:46.908Z,81.05
2023-03-21T11:00:22.382Z,81.16
2023-03-21T11:02:53.800Z,81.01
2023-03-21T11:05:27.204Z,81.33
2023-03-21T11:08:06.438Z,82.11
2023-03-21T11:10:38.322Z,82.54
2023-03-21T11:13:19.213Z,82.56
2023-03-21T11:15:54.766Z,83.56
2023-03-21T11:18:25.882Z,82.72
2023-03-21T11:20:56.876Z,83.07
2023-03-21T11:23:29.943Z,82.43
2023-03-21T11:26:00.772Z,82.30
2023-03-21T11:28:37.129Z,80.38
2023-03-21T11:31:08.728Z,79.21
2023-03-21T11:33:43.965Z,77.27
2023-03-21T11:36:33.744Z,75.71
2023-03-21T11:39:15.448Z,75.17
2023-03-21T11:41:51.183Z,74.22
2023-03-21T11:44:30.282Z,73.80
2023-03-21T11:47:02.981Z,74.20
2023-03-21T11:49:32.167Z,74.70
2023-03-21T11:52:21.925Z,74.79
2023-03-21T11:55:07.024Z,75.00
2023-03-21T11:57:44.111Z,75.57
2023-03-21T12:00:20.361Z,75.87
2023-03-21T12:03:15.302Z,76.09
2023-03-21T12:05:53.161Z,76.25
2023-03-21T12:08:32.805Z,76.69
2023-03-21T12:11:13.261Z,76.92
2023-03-21T12:13:53.522Z,77.69
2023-03-21T12:16:40.723Z,77.65
2023-03-21T12:19:34.114Z,77.53
2023-03-21T12:22:13.600Z,77.56
2023-03-21T12:24:50.835Z,77.91
2023-03-21T12:27:32.931Z,76.81
2023-03-21T12:30:36.694Z,76.63
2023-03-21T12:33:24.364Z,76.73
2023-03-21T12:36:10.702Z,76.35
2023-03-21T12:38:48.192Z,75.75
2023-03-21T12:41:26.828Z,75.45
2023-03-21T12:44:02.803Z,75.54
2023-03-21T12:46:40.065Z,74.77
2023-03-21T12:49:16.352Z,75.18
2023-03-21T12:51:49.463Z,75.19
2023-03-21T12:54:27.408Z,75.40
2023-03-21T12:57:02.854Z,75.07
2023-03-21T12:59:38.295Z,75.05
2023-03-21T13:02:18.775Z,74.14
2023-03-21T13:04:55.660Z,74.29
2023-03-21T13:07:26.635Z,74.57
2023-03-21T13:09:57.392Z,74.20
2023-03-21T13:12:41.791Z,74.46
2023-03-21T13:15:24.318Z,75.29
2023-03-21T13:18:01.071Z,74.74
2023-03-21T13:20:43.514Z,73.78
2023-03-21T13:23:17.964Z,74.45
2023-03-21T13:25:48.848Z,74.93
2023-03-21T13:28:22.430Z,74.56
2023-03-21T13:30:52.135Z,75.30
2023-03-21T13:33:29.603Z,74.97
2023-03-21T13:36:06.651Z,72.89
2023-03-21T13:38:39.723Z,73.48
2023-03-21T13:41:13.068Z,72.46
2023-03-21T13:43:45.758Z,71.25
2023-03-21T13:46:46.951Z,70.06
2023-03-21T13:49:30.568Z,69.83
2023-03-21T13:52:02.252Z,70.22
2023-03-21T13:54:50.443Z,71.47
2023-03-21T13:57:40.010Z,72.21
2023-03-21T14:00:19.208Z,71.95
2023-03-21T14:03:00.598Z,71.36
2023-03-21T14:05:29.753Z,70.98
2023-03-21T14:08:12.660Z,70.14
2023-03-21T14:10:48.937Z,70.50
2023-03-21T14:13:21.122Z,70.86
2023-03-21T14:15:56.266Z,70.27
2023-03-21T14:18:51.744Z,70.01
2023-03-21T14:21:25.149Z,69.67
2023-03-21T14:24:01.910Z,68.80
2023-03-21T14:26:34.047Z,69.18
2023-03-21T14:29:09.692Z,69.58
2023-03-21T14:31:46.963Z,70.00
2023-03-21T14:34:17.168Z,69.99
2023-03-21T14:36:56.863Z,69.97
2023-03-21T14:39:30.398Z,69.49
2023-03-21T14:42:04.393Z,70.29
2023-03-21T14:44:53.582Z,69.58
2023-03-21T14:47:25.108Z,69.95
2023-03-21T14:49:55.884Z,70.56
2023-03-21T14:52:29.966Z,70.39
2023-03-21T14:54:59.890Z,71.08
2023-03-21T14:57:31.227Z,70.12
2023-03-21T15:00:12.001Z,69.46
2023-03-21T15:02:42.977Z,69.89
2023-03-21T15:05:18.661Z,70.11
2023-03-21T15:07:56.045Z,70.23
2023-03-21T15:10:27.680Z,69.86
2023-03-21T15:12:58.673Z,70.06
2023-03-21T15:15:30.228Z,69.81
2023-03-21T15:18:06.459Z,70.16
2023-03-21T15:20:38.206Z,70.28
2023-03-21T15:23:12.712Z,70.68
2023-03-21T15:25:43.497Z,71.18
2023-03-21T15:28:14.518Z,71.00
2023-03-21T15:30:50.611Z,71.07
2023-03-21T15:33:23.596Z,70.59
2023-03-21T15:35:55.991Z,70.78
2023-03-21T15:38:33.257Z,70.92
2023-03-21T15:41:16.711Z,70.67
2023-03-21T15:43:46.882Z,71.07
2023-03-21T15:46:17.574Z,70.54
2023-03-21T15:48:46.760Z,70.80
2023-03-21T15:51:21.534Z,71.16
2023-03-21T15:53:53.891Z,71.75
2023-03-21T15:56:34.225Z,71.15
2023-03-21T15:59:06.041Z,71.61
2023-03-21T16:01:38.428Z,71.89
2023-03-21T16:04:10.507Z,71.96
2023-03-21T16:06:52.249Z,71.87
2023-03-21T16:09:25.690Z,72.36
2023-03-21T16:11:58.341Z,72.71
2023-03-21T16:14:28.039Z,72.81
2023-03-21T16:17:13.861Z,72.98
2023-03-21T16:19:43.842Z,73.07
2023-03-21T16:22:15.364Z,73.46
2023-03-21T16:24:44.648Z,74.00
2023-03-21T16:27:17.161Z,74.27
2023-03-21T16:29:46.518Z,74.46
2023-03-21T16:32:16.935Z,74.63
2023-03-21T16:34:46.176Z,74.91
2023-03-21T16:37:18.238Z,75.06
2023-03-21T16:39:47.274Z,75.01
2023-03-21T16:42:16.160Z,75.01
2023-03-21T16:44:45.183Z,75.14
2023-03-21T16:47:18.040Z,75.34
2023-03-21T16:49:47.785Z,75.84
2023-03-21T16:52:17.661Z,76.37
2023-03-21T16:54:46.591Z,76.96
2023-03-21T16:57:27.661Z,77.35
2023-03-21T16:59:57.058Z,77.92
2023-03-21T17:02:26.957Z,77.74
2023-03-21T17:04:57.719Z,78.39
2023-03-21T17:07:27.003Z,78.50
2023-03-21T17:09:57.485Z,78.32
2023-03-21T17:12:26.586Z,77.92
2023-03-21T17:14:55.795Z,78.32
2023-03-21T17:17:24.923Z,78.23
2023-03-21T17:19:54.004Z,78.52
2023-03-21T17:22:22.929Z,78.86
2023-03-21T17:24:52.039Z,79.03
2023-03-21T17:27:20.924Z,79.23
2023-03-21T17:29:50.259Z,79.37
2023-03-21T17:32:19.755Z,79.70
2023-03-21T17:34:52.580Z,79.95
2023-03-21T17:37:25.485Z,80.11
2023-03-21T17:39:55.500Z,80.71
2023-03-21T17:42:24.502Z,80.83
2023-03-21T17:44:53.750Z,80.73
2023-03-21T17:47:25.107Z,80.95
2023-03-21T17:49:54.452Z,80.86
2023-03-21T17:52:24.712Z,80.81
2023-03-21T17:54:53.891Z,81.04
2023-03-21T17:57:22.792Z,81.50
2023-03-21T17:59:52.501Z,81.96
2023-03-21T18:02:21.403Z,82.01
2023-03-21T18:04:50.430Z,81.90
2023-03-21T18:07:28.691Z,81.71
2023-03-21T18:10:14.289Z,81.67
2023-03-21T18:12:43.581Z,82.36
2023-03-21T18:15:17.046Z,82.94
2023-03-21T18:17:46.195Z,83.49
2023-03-21T18:20:19.896Z,83.36
2023-03-21T18:22:52.094Z,83.02
2023-03-21T18:25:21.572Z,82.78
2023-03-21T18:28:09.949Z,82.44
2023-03-21T18:31:00.950Z,82.40
2023-03-21T18:33:31.360Z,82.80
2023-03-21T18:36:07.016Z,82.93
2023-03-21T18:38:37.408Z,83.15
2023-03-21T18:41:08.112Z,83.42
2023-03-21T18:46:30.304Z,83.35
2023-03-21T18:49:27.052Z,83.73
2023-03-21T18:51:51.990Z,84.17
2023-03-21T18:54:22.909Z,85.03
2023-03-21T18:59:40.929Z,85.99
2023-03-21T19:02:16.325Z,86.23
2023-03-21T19:04:46.001Z,86.21
2023-03-21T19:07:15.167Z,86.23
2023-03-21T19:10:05.853Z,86.20
2023-03-21T19:12:33.611Z,86.17
2023-03-21T19:15:05.445Z,86.52
2023-03-21T19:20:23.880Z,85.70
2023-03-21T19:22:53.596Z,85.89
2023-03-21T19:25:22.630Z,85.79
2023-03-21T19:27:52.320Z,85.72
2023-03-21T19:30:21.551Z,85.41
2023-03-21T19:32:50.386Z,85.46
2023-03-21T19:35:19.609Z,85.65
2023-03-21T19:37:48.410Z,85.79
2023-03-21T19:40:21.032Z,85.64
2023-03-21T19:42:50.155Z,85.57
2023-03-21T19:45:22.210Z,85.57
2023-03-21T19:47:51.096Z,85.94
2023-03-21T19:50:57.910Z,86.26
2023-03-21T19:53:09.207Z,86.31
2023-03-21T19:55:38.309Z,86.42
2023-03-21T19:58:12.094Z,86.58
2023-03-21T20:00:41.227Z,87.01
2023-03-21T20:03:10.432Z,86.99
2023-03-21T20:05:41.842Z,86.91
2023-03-21T20:08:12.765Z,86.95
2023-03-21T20:10:44.949Z,86.77
2023-03-21T20:13:14.422Z,86.91
2023-03-21T20:15:48.097Z,87.37
2023-03-21T20:18:16.573Z,87.39
2023-03-21T20:20:45.492Z,87.54
2023-03-21T20:23:17.153Z,87.63
2023-03-21T20:25:47.701Z,87.51
2023-03-21T20:28:25.496Z,87.56
2023-03-21T20:30:57.794Z,87.91
2023-03-21T20:33:27.819Z,87.36
2023-03-21T20:38:51.454Z,87.14
2023-03-21T20:41:20.949Z,87.37
2023-03-21T20:46:43.113Z,86.87
2023-03-21T20:49:13.191Z,87.05
2023-03-21T20:52:44.646Z,87.36
2023-03-21T20:54:31.746Z,87.45
2023-03-21T20:57:04.196Z,87.73
2023-03-21T20:59:33.980Z,87.85
2023-03-21T21:02:05.107Z,87.75
2023-03-21T21:04:49.826Z,87.90
2023-03-21T21:07:27.120Z,88.01
2023-03-21T21:09:56.264Z,88.12
2023-03-21T21:12:26.973Z,88.05
2023-03-21T21:14:55.995Z,88.15
2023-03-21T21:20:17.235Z,87.95
2023-03-21T21:22:59.436Z,88.16
2023-03-21T21:25:33.137Z,88.01
2023-03-21T21:28:02.358Z,87.91
2023-03-21T21:30:33.686Z,87.90
2023-03-21T21:33:02.448Z,87.93
2023-03-21T21:35:33.076Z,87.90
2023-03-21T21:38:01.877Z,88.00
2023-03-21T21:40:31.158Z,88.20
2023-03-21T21:43:03.427Z,88.31
2023-03-21T21:45:32.369Z,88.41
2023-03-21T21:48:01.601Z,88.61
2023-03-21T21:50:30.627Z,88.67
2023-03-21T21:53:03.068Z,88.64
2023-03-21T21:55:33.523Z,88.60
2023-03-21T21:58:03.417Z,88.57
2023-03-21T22:00:33.972Z,88.17
2023-03-21T22:03:02.806Z,88.18
2023-03-21T22:05:32.089Z,88.27
2023-03-21T22:08:00.856Z,88.36
2023-03-21T22:10:32.439Z,88.36
2023-03-21T22:13:01.437Z,88.42
2023-03-21T22:15:30.395Z,88.63
2023-03-21T22:17:59.260Z,88.79
2023-03-21T22:20:28.049Z,88.78
2023-03-21T22:22:59.003Z,88.78
2023-03-21T22:25:28.511Z,88.82
2023-03-21T22:27:57.293Z,88.91
2023-03-21T22:30:26.538Z,88.92
2023-03-21T22:33:08.460Z,88.93
2023-03-21T22:35:37.765Z,88.82
2023-03-21T22:38:08.218Z,88.86
2023-03-21T22:40:37.506Z,89.02
2023-03-21T22:43:08.298Z,88.98
2023-03-21T22:45:37.505Z,89.01
2023-03-21T22:48:08.985Z,89.05
2023-03-21T22:50:38.399Z,89.03
2023-03-21T22:53:07.818Z,89.02
2023-03-21T22:55:37.838Z,88.99
2023-03-21T22:58:07.086Z,88.93
2023-03-21T23:00:38.530Z,88.94
2023-03-21T23:03:08.238Z,89.01
2023-03-21T23:05:40.633Z,89.00
2023-03-21T23:08:09.887Z,88.89
2023-03-21T23:10:39.478Z,88.97
2023-03-21T23:13:08.979Z,89.14
2023-03-21T23:15:39.482Z,88.97
2023-03-21T23:18:09.369Z,89.15
2023-03-21T23:20:40.568Z,89.27
2023-03-21T23:23:09.704Z,89.17
2023-03-21T23:25:42.319Z,88.87
2023-03-21T23:28:12.052Z,88.92
2023-03-21T23:30:41.333Z,88.89
2023-03-21T23:33:13.864Z,88.94
2023-03-21T23:35:43.121Z,89.09
2023-03-21T23:38:12.574Z,89.24
2023-03-21T23:40:41.619Z,89.34
2023-03-21T23:43:10.856Z,89.43
2023-03-21T23:45:41.471Z,89.44
2023-03-21T23:48:10.620Z,89.01
2023-03-21T23:50:41.332Z,89.03
2023-03-21T23:53:10.285Z,89.14
2023-03-21T23:55:41.359Z,89.27
2023-03-21T23:58:13.944Z,89.38
